Time;durP1;ratioP1;P1;durP2;ratioP2;P2;SDS_P1;SDS_P2;PMS_P1;PMS_P2;Temp;Humidity;BMP_temperature;BMP_pressure;BME280_temperature;BME280_humidity;BME280_pressure;Samples;Min_cycle;Max_cycle;Signal;HPM_P1;HPM_P2
2022/10/01 00:02:05;;;;;;;0.93;0.30;;;17.50;99.40;;;17.82;50.83;100304.31;4933846;28;99083;-59
2022/10/01 00:04:31;;;;;;;0.20;0.10;;;17.40;99.90;;;17.80;47.63;100292.03;4903438;28;97226;-58
2022/10/01 00:06:59;;;;;;;0.93;0.40;;;17.40;99.90;;;17.78;48.42;100291.28;4923639;28;97217;-58
2022/10/01 00:09:25;;;;;;;0.83;0.37;;;17.30;99.60;;;17.75;47.11;100299.50;4921726;28;98108;-59
2022/10/01 00:11:52;;;;;;;0.20;0.20;;;17.30;99.20;;;17.75;51.17;100284.34;4922297;28;97755;-58
2022/10/01 00:14:18;;;;;;;0.20;0.20;;;17.20;99.90;;;17.71;49.24;100287.34;4919114;28;104820;-59
2022/10/01 00:16:44;;;;;;;0.13;0.13;;;17.20;99.80;;;17.74;50.80;100273.78;4923213;28;97024;-57
2022/10/01 00:19:13;;;;;;;0.10;0.10;;;17.20;99.90;;;17.82;48.70;100271.44;4908826;28;97262;-57
2022/10/01 00:21:39;;;;;;;0.13;0.13;;;17.40;99.90;;;17.69;46.71;100275.94;4909797;28;98995;-58
2022/10/01 00:24:05;;;;;;;0.10;0.10;;;17.30;99.00;;;17.59;47.56;100288.19;4909613;28;99388;-57
2022/10/01 00:26:36;;;;;;;0.20;0.20;;;17.20;99.70;;;17.53;48.32;100290.34;4912280;28;101344;-57
2022/10/01 00:29:10;;;;;;;0.93;0.27;;;17.10;99.90;;;17.54;49.94;100284.03;4911531;28;98458;-58
2022/10/01 00:31:36;;;;;;;0.27;0.20;;;17.00;99.90;;;17.49;49.79;100283.50;4912653;28;102083;-56
2022/10/01 00:34:03;;;;;;;1.33;0.27;;;17.00;99.90;;;17.54;49.95;100283.19;4907801;28;98259;-58
2022/10/01 00:36:30;;;;;;;0.20;0.20;;;17.10;99.90;;;17.50;50.62;100281.69;4907201;28;98510;-58
2022/10/01 00:39:00;;;;;;;0.63;0.30;;;17.10;99.90;;;17.50;50.46;100277.22;4910941;28;97864;-58
2022/10/01 00:41:29;;;;;;;0.20;0.20;;;17.10;99.90;;;17.50;51.46;100271.91;4907350;28;97363;-57
2022/10/01 00:44:00;;;;;;;0.20;0.20;;;17.00;99.90;;;17.40;51.74;100270.81;4910532;28;97395;-57
2022/10/01 00:46:45;;;;;;;0.83;0.40;;;16.90;99.90;;;17.41;52.74;100266.34;4902741;28;99654;-56
2022/10/01 00:49:18;;;;;;;0.73;0.40;;;16.90;99.90;;;17.37;52.76;100262.19;4894926;28;98223;-58
2022/10/01 00:51:58;;;;;;;0.20;0.20;;;16.90;99.90;;;17.27;53.50;100264.63;4911221;28;98819;-56
2022/10/01 00:54:30;;;;;;;0.60;0.50;;;16.80;99.90;;;17.18;54.83;100254.59;4907225;28;98797;-55
2022/10/01 00:56:58;;;;;;;0.40;0.30;;;16.70;99.90;;;17.08;56.01;100245.56;4909988;28;98615;-58
2022/10/01 00:59:25;;;;;;;0.80;0.30;;;16.60;99.90;;;16.98;55.00;100239.16;4909257;28;97478;-55
2022/10/01 01:01:51;;;;;;;0.73;0.30;;;16.50;99.90;;;16.93;56.21;100229.66;4909668;28;99265;-55
2022/10/01 01:04:17;;;;;;;0.30;0.30;;;16.40;99.90;;;16.92;55.32;100227.97;4904277;28;98287;-58
2022/10/01 01:06:57;;;;;;;0.53;0.23;;;16.40;99.90;;;17.00;55.94;100218.59;4910463;28;101175;-57
2022/10/01 01:09:41;;;;;;;0.10;0.10;;;16.50;99.90;;;17.11;54.59;100213.38;4920795;28;103905;-54
2022/10/01 01:12:25;;;;;;;0.10;0.10;;;16.60;99.90;;;17.09;55.12;100207.28;4907264;28;97308;-55
2022/10/01 01:15:27;;;;;;;0.33;0.20;;;16.60;99.90;;;17.07;55.56;100199.41;4906653;28;101150;-56
2022/10/01 01:18:12;;;;;;;0.40;0.30;;;16.60;99.90;;;17.04;55.64;100196.94;4909027;28;98263;-56
2022/10/01 01:21:05;;;;;;;0.20;0.20;;;16.50;99.90;;;17.14;54.66;100190.00;4906843;28;97624;-55
2022/10/01 01:23:58;;;;;;;0.23;0.20;;;16.60;99.90;;;17.04;55.98;100188.09;4901093;28;97515;-56
2022/10/01 01:26:58;;;;;;;0.00;0.00;;;16.50;99.90;;;17.14;54.53;100162.50;4903695;28;98672;-53
2022/10/01 01:29:35;;;;;;;0.10;0.10;;;16.50;99.90;;;17.18;55.80;100156.00;4903867;28;99652;-56
2022/10/01 01:32:11;;;;;;;0.10;0.10;;;16.80;99.90;;;17.24;54.62;100151.09;4906899;28;97661;-56
2022/10/01 01:34:42;;;;;;;0.00;0.00;;;16.70;99.90;;;17.32;55.38;100169.19;4904362;28;104077;-55
2022/10/01 01:37:13;;;;;;;0.00;0.00;;;16.80;99.90;;;17.30;54.44;100163.13;4905764;28;97768;-60
2022/10/01 01:39:45;;;;;;;0.63;0.20;;;16.80;99.90;;;17.22;56.77;100160.19;4909240;28;97374;-56
2022/10/01 01:42:22;;;;;;;0.00;0.00;;;16.70;99.90;;;17.33;54.33;100168.22;4899553;28;97617;-55
2022/10/01 01:44:52;;;;;;;0.10;0.10;;;16.70;99.90;;;17.19;56.32;100160.38;4906073;28;98331;-53
2022/10/01 01:47:21;;;;;;;0.10;0.10;;;16.70;99.90;;;17.21;55.01;100147.78;4903105;28;103293;-57
2022/10/01 01:49:49;;;;;;;0.20;0.17;;;16.60;99.90;;;17.36;53.81;100136.06;4906767;28;97567;-55
2022/10/01 01:52:16;;;;;;;0.30;0.30;;;16.80;99.90;;;17.42;53.83;100114.28;4903066;28;97230;-53
2022/10/01 01:54:46;;;;;;;0.93;0.63;;;16.90;99.90;;;17.60;53.12;100105.88;4905382;28;98787;-56
2022/10/01 01:57:13;;;;;;;0.10;0.10;;;17.20;99.90;;;17.60;53.43;100101.41;4903038;28;97313;-54
2022/10/01 01:59:40;;;;;;;0.33;0.33;;;17.20;99.90;;;17.61;53.46;100088.91;4901809;28;97651;-54
2022/10/01 02:02:11;;;;;;;0.37;0.23;;;17.20;99.90;;;17.64;53.65;100083.34;4900615;28;97554;-54
2022/10/01 02:04:45;;;;;;;0.80;0.13;;;17.20;99.90;;;17.69;53.14;100079.44;4908107;28;101970;-54
2022/10/01 02:07:10;;;;;;;0.03;0.03;;;17.20;99.90;;;17.80;53.04;100065.31;4906084;28;99138;-55
2022/10/01 02:09:54;;;;;;;0.00;0.00;;;17.40;99.90;;;17.78;52.87;100059.22;4911576;28;97273;-56
2022/10/01 02:13:00;;;;;;;0.10;0.10;;;17.40;99.90;;;17.83;52.67;100054.41;4906832;28;97476;-56
2022/10/01 02:15:45;;;;;;;0.20;0.10;;;17.40;99.90;;;17.75;53.09;100041.63;4894763;28;98204;-56
2022/10/01 02:18:30;;;;;;;0.50;0.50;;;17.40;99.90;;;17.87;52.51;100034.53;4908446;28;98868;-54
2022/10/01 02:21:27;;;;;;;0.20;0.20;;;17.50;99.90;;;18.02;51.92;100033.34;4911301;28;97537;-54
2022/10/01 02:24:13;;;;;;;0.10;0.10;;;17.70;99.90;;;18.04;52.21;100030.56;4904964;28;98665;-52
2022/10/01 02:26:41;;;;;;;0.10;0.10;;;17.80;99.90;;;18.01;53.61;100036.16;4922233;28;101528;-55
2022/10/01 02:29:12;;;;;;;0.10;0.03;;;17.70;99.90;;;18.00;52.48;100034.44;4909911;28;99448;-56
2022/10/01 02:31:39;;;;;;;0.20;0.10;;;17.60;99.90;;;17.85;53.40;100052.47;4903073;28;103907;-53
2022/10/01 02:34:07;;;;;;;0.00;0.00;;;17.40;99.90;;;17.69;54.12;100060.75;4907741;28;97220;-56
2022/10/01 02:36:36;;;;;;;0.30;0.30;;;17.20;99.90;;;17.59;54.98;100045.53;4904974;28;102051;-54
2022/10/01 02:39:05;;;;;;;1.07;0.50;;;17.10;99.90;;;17.49;54.39;100054.19;4932289;28;98295;-56
2022/10/01 02:41:34;;;;;;;0.37;0.30;;;16.90;99.90;;;17.36;55.54;100060.53;4921743;28;96866;-57
2022/10/01 02:44:08;;;;;;;0.10;0.10;;;16.80;99.90;;;17.18;56.24;100068.91;4923792;28;98448;-56
2022/10/01 02:46:56;;;;;;;0.23;0.23;;;16.70;99.90;;;17.04;57.84;100070.88;4921776;28;103474;-52
2022/10/01 02:49:23;;;;;;;0.43;0.17;;;16.50;99.90;;;16.94;57.35;100071.53;4926546;28;97550;-54
2022/10/01 02:52:11;;;;;;;0.10;0.10;;;16.40;99.90;;;16.93;56.99;100064.50;4929542;28;97229;-55
2022/10/01 02:54:50;;;;;;;0.20;0.10;;;16.40;99.90;;;16.86;56.90;100084.53;4914743;28;97459;-54
2022/10/01 02:57:23;;;;;;;0.20;0.10;;;16.30;99.90;;;16.73;59.68;100089.03;4950968;28;97032;-56
2022/10/01 02:59:58;;;;;;;0.10;0.10;;;16.20;99.90;;;16.65;59.02;100078.03;4936800;28;97384;-54
2022/10/01 03:02:27;;;;;;;0.40;0.10;;;16.00;99.90;;;16.63;58.59;100071.94;4927036;28;97026;-53
2022/10/01 03:04:57;;;;;;;0.20;0.20;;;16.00;99.90;;;16.75;57.02;100052.47;4927729;28;97411;-54
2022/10/01 03:07:26;;;;;;;0.17;0.07;;;16.10;99.90;;;16.88;57.35;100045.31;4923515;28;97170;-55
2022/10/01 03:09:52;;;;;;;0.10;0.10;;;16.30;99.90;;;17.09;55.63;100042.94;4922226;28;99106;-56
2022/10/01 03:12:18;;;;;;;0.10;0.10;;;16.60;99.90;;;17.22;55.16;100033.09;4939669;28;104049;-58
2022/10/01 03:14:45;;;;;;;0.27;0.10;;;16.80;99.90;;;17.33;55.11;100037.63;4935009;28;98006;-57
2022/10/01 03:17:12;;;;;;;0.20;0.10;;;16.90;99.90;;;17.41;54.67;100027.25;4917509;28;97331;-57
2022/10/01 03:19:39;;;;;;;0.20;0.20;;;17.00;99.90;;;17.40;55.46;100017.56;4927714;28;97065;-57
2022/10/01 03:22:07;;;;;;;0.10;0.10;;;16.90;99.90;;;17.54;54.41;99979.22;4923242;28;98816;-55
2022/10/01 03:24:33;;;;;;;0.00;0.00;;;17.10;99.90;;;17.62;54.06;99983.94;4915886;28;97614;-55
2022/10/01 03:26:59;;;;;;;0.20;0.20;;;17.20;99.90;;;17.61;54.70;99974.25;4925591;28;97736;-56
2022/10/01 03:29:25;;;;;;;0.17;0.17;;;17.20;99.90;;;17.66;54.39;99977.44;4926051;28;98114;-55
2022/10/01 03:31:52;;;;;;;0.20;0.13;;;17.20;99.90;;;17.64;55.12;99979.34;4929090;28;97087;-55
2022/10/01 03:34:18;;;;;;;0.20;0.20;;;17.20;99.90;;;17.65;55.44;99965.06;4920219;28;98499;-55
2022/10/01 03:36:44;;;;;;;0.00;0.00;;;17.20;99.90;;;17.79;53.60;99962.22;4917634;28;98876;-56
2022/10/01 03:39:10;;;;;;;0.33;0.20;;;17.40;99.90;;;17.65;55.37;99971.25;4921612;28;98452;-57
2022/10/01 03:41:36;;;;;;;0.10;0.10;;;17.30;99.90;;;17.62;55.64;99971.47;4930409;28;97181;-56
2022/10/01 03:44:03;;;;;;;0.20;0.20;;;17.20;99.90;;;17.65;55.64;99968.59;4919025;28;97482;-55
2022/10/01 03:46:29;;;;;;;0.20;0.20;;;17.20;99.90;;;17.51;56.21;99969.63;4913442;28;99185;-54
2022/10/01 03:48:56;;;;;;;0.00;0.00;;;17.10;99.90;;;17.62;54.11;99943.94;4931869;28;97412;-56
2022/10/01 03:51:23;;;;;;;0.33;0.30;;;17.10;99.90;;;17.78;53.71;99933.84;4926987;28;97312;-56
2022/10/01 03:53:48;;;;;;;0.23;0.20;;;17.40;99.90;;;17.67;54.67;99944.47;4927182;28;97171;-57
2022/10/01 03:56:15;;;;;;;0.30;0.10;;;17.30;99.90;;;17.71;53.68;99932.63;4924951;28;97498;-54
2022/10/01 03:58:41;;;;;;;0.20;0.20;;;17.30;99.90;;;17.93;53.26;99938.00;4920442;28;97386;-57
2022/10/01 04:01:06;;;;;;;1.10;0.07;;;17.60;99.90;;;18.02;52.91;99931.94;4920902;28;97554;-54
2022/10/01 04:03:32;;;;;;;0.20;0.10;;;17.80;99.90;;;17.99;53.30;99918.84;4911413;28;97423;-56
2022/10/01 04:05:58;;;;;;;0.00;0.00;;;17.70;99.90;;;18.19;52.43;99895.94;4924485;28;113045;-57
2022/10/01 04:08:24;;;;;;;0.17;0.03;;;17.90;99.90;;;18.29;51.93;99872.88;4913424;28;121858;-55
2022/10/01 04:10:50;;;;;;;0.13;0.13;;;18.10;99.90;;;18.40;51.71;99866.69;4931403;28;97460;-54
2022/10/01 04:13:16;;;;;;;0.10;0.00;;;18.30;99.90;;;18.25;52.83;99894.63;4914442;28;97421;-56
2022/10/01 04:15:43;;;;;;;0.10;0.10;;;18.00;99.90;;;18.08;53.95;99910.16;4927970;28;101968;-56
2022/10/01 04:18:09;;;;;;;0.13;0.10;;;17.70;99.90;;;17.94;54.70;99899.72;4923699;28;97090;-59
2022/10/01 04:20:37;;;;;;;0.07;0.07;;;17.50;99.90;;;17.88;53.64;99875.31;4934812;28;97359;-55
2022/10/01 04:23:04;;;;;;;0.00;0.00;;;17.40;99.90;;;18.00;52.92;99872.53;4925042;28;97106;-55
2022/10/01 04:25:30;;;;;;;0.00;0.00;;;17.60;99.90;;;18.01;52.85;99882.22;4926654;28;98091;-56
2022/10/01 04:27:59;;;;;;;1.40;0.00;;;17.70;99.90;;;18.06;52.82;99799.97;4920712;28;97354;-55
2022/10/01 04:30:33;;;;;;;0.20;0.00;;;17.70;99.90;;;18.29;52.18;99816.84;4922241;28;97489;-57
2022/10/01 04:32:59;;;;;;;0.23;0.23;;;18.10;99.90;;;18.27;52.24;99876.66;4923173;28;98695;-57
2022/10/01 04:35:26;;;;;;;0.83;0.63;;;18.10;99.90;;;18.00;54.74;99893.88;4919728;28;108322;-56
2022/10/01 04:38:06;;;;;;;0.40;0.33;;;17.70;99.90;;;18.06;53.07;99845.34;4924119;28;97726;-52
2022/10/01 04:40:34;;;;;;;1.17;0.20;;;17.70;99.90;;;18.18;52.59;99824.84;4915003;28;97418;-55
2022/10/01 04:43:02;;;;;;;0.07;0.00;;;17.80;99.90;;;18.27;52.45;99865.97;4912227;28;97276;-52
2022/10/01 04:45:28;;;;;;;0.30;0.10;;;18.00;99.90;;;18.17;53.56;99873.00;4914817;28;97120;-56
2022/10/01 04:47:55;;;;;;;0.00;0.00;;;17.80;99.90;;;17.89;55.70;99914.34;4929645;28;97084;-56
2022/10/01 04:50:24;;;;;;;0.17;0.03;;;17.50;99.90;;;17.75;55.71;99934.09;4904549;28;97115;-56
2022/10/01 04:52:51;;;;;;;0.00;0.00;;;17.20;99.90;;;17.56;56.42;99945.28;4922077;28;98041;-54
2022/10/01 04:55:18;;;;;;;0.17;0.07;;;17.00;99.90;;;17.41;56.67;99960.63;4920863;28;98215;-54
2022/10/01 04:57:45;;;;;;;0.00;0.00;;;16.80;99.90;;;17.25;59.49;99954.72;4929867;28;97061;-56
2022/10/01 05:00:16;;;;;;;0.00;0.00;;;16.70;99.90;;;17.11;59.57;99944.25;4917808;28;107094;-56
2022/10/01 05:02:46;;;;;;;0.00;0.00;;;16.50;99.90;;;16.94;59.74;99935.69;4920284;28;97328;-53
2022/10/01 05:05:12;;;;;;;0.00;0.00;;;16.40;99.90;;;16.82;61.23;99941.91;4930432;28;96666;-55
2022/10/01 05:07:39;;;;;;;0.10;0.10;;;16.30;99.90;;;16.74;61.09;99930.94;4933556;28;96981;-56
2022/10/01 05:10:15;;;;;;;0.00;0.00;;;16.20;99.90;;;16.75;60.52;99926.47;4952968;28;96889;-55
2022/10/01 05:12:41;;;;;;;0.00;0.00;;;16.10;99.90;;;16.68;60.84;99907.44;4923580;28;97174;-56
2022/10/01 05:15:08;;;;;;;0.00;0.00;;;16.10;99.90;;;16.63;61.49;99906.88;4936628;28;113180;-54
2022/10/01 05:17:35;;;;;;;0.00;0.00;;;16.00;99.90;;;16.54;61.83;99907.53;4925524;28;102525;-55
2022/10/01 05:20:03;;;;;;;0.00;0.00;;;16.00;99.90;;;16.41;61.18;99912.91;4947313;28;97303;-54
2022/10/01 05:22:29;;;;;;;0.10;0.10;;;15.90;99.90;;;16.51;59.78;99894.47;4933341;28;100292;-55
2022/10/01 05:24:55;;;;;;;0.00;0.00;;;16.00;99.90;;;16.42;60.85;99900.44;4939984;28;98014;-56
2022/10/01 05:27:21;;;;;;;0.00;0.00;;;15.90;99.90;;;16.37;61.88;99900.78;4929326;28;96928;-54
2022/10/01 05:29:47;;;;;;;0.10;0.00;;;16.00;99.90;;;16.33;62.00;99899.28;4929323;28;97916;-55
2022/10/01 05:32:13;;;;;;;0.67;0.20;;;15.90;99.90;;;16.42;62.28;99897.78;4922589;28;97453;-54
2022/10/01 05:34:39;;;;;;;0.00;0.00;;;16.00;99.90;;;16.39;61.63;99903.31;4928594;28;99004;-55
2022/10/01 05:37:06;;;;;;;0.00;0.00;;;16.00;99.90;;;16.34;62.42;99901.81;4934102;28;97177;-54
2022/10/01 05:39:32;;;;;;;0.10;0.00;;;16.00;99.90;;;16.41;61.40;99898.75;4927386;28;97622;-55
2022/10/01 05:41:58;;;;;;;0.00;0.00;;;16.10;99.90;;;16.44;61.41;99917.16;4924211;28;99165;-55
2022/10/01 05:44:25;;;;;;;0.10;0.10;;;16.10;99.90;;;16.46;61.88;99920.53;4923758;28;97124;-53
2022/10/01 05:46:52;;;;;;;0.30;0.00;;;16.10;99.90;;;16.45;61.62;99921.50;4918810;28;97143;-55
2022/10/01 05:49:18;;;;;;;0.00;0.00;;;16.10;99.90;;;16.33;62.46;99920.56;4914820;28;97135;-52
2022/10/01 05:51:44;;;;;;;0.13;0.10;;;16.00;99.90;;;16.35;60.49;99924.84;4929925;28;97587;-55
2022/10/01 05:54:12;;;;;;;1.70;0.10;;;16.00;99.90;;;16.43;60.99;99926.09;4927281;28;97178;-54
2022/10/01 05:56:38;;;;;;;0.00;0.00;;;16.00;99.90;;;16.40;61.70;99918.34;4943399;28;97427;-53
2022/10/01 05:59:04;;;;;;;0.00;0.00;;;16.00;99.90;;;16.37;61.61;99916.75;4916447;28;106965;-55
2022/10/01 06:01:31;;;;;;;0.00;0.00;;;15.90;99.90;;;16.29;63.02;99930.59;4919979;28;97090;-56
2022/10/01 06:03:57;;;;;;;0.00;0.00;;;15.90;99.90;;;16.26;62.89;99929.97;4929510;28;100138;-55
2022/10/01 06:06:26;;;;;;;0.00;0.00;;;15.90;99.90;;;16.33;60.20;99926.72;4919324;28;105109;-55
2022/10/01 06:08:53;;;;;;;0.00;0.00;;;15.90;99.90;;;16.44;61.37;99923.31;4933278;28;96768;-56
2022/10/01 06:11:22;;;;;;;0.00;0.00;;;16.00;99.90;;;16.36;62.17;99926.53;4927134;28;97074;-56
2022/10/01 06:13:48;;;;;;;0.00;0.00;;;16.00;99.90;;;16.28;62.13;99938.69;4924939;28;97360;-55
2022/10/01 06:16:14;;;;;;;0.00;0.00;;;15.90;99.90;;;16.23;62.58;99936.34;4922947;28;97381;-55
2022/10/01 06:18:41;;;;;;;0.00;0.00;;;15.90;99.90;;;16.30;62.09;99932.28;4921425;28;111470;-53
2022/10/01 06:21:08;;;;;;;0.00;0.00;;;15.90;99.90;;;16.29;62.26;99932.41;4921816;28;100822;-54
2022/10/01 06:23:34;;;;;;;0.37;0.00;;;15.90;99.90;;;16.24;62.37;99938.06;4929806;28;97213;-53
2022/10/01 06:26:02;;;;;;;0.20;0.10;;;15.90;99.90;;;16.27;62.33;99937.81;4939196;28;98168;-55
2022/10/01 06:28:28;;;;;;;0.00;0.00;;;15.90;99.90;;;16.31;61.95;99939.31;4926907;28;97582;-54
2022/10/01 06:30:53;;;;;;;0.00;0.00;;;16.00;99.90;;;16.29;62.54;99943.03;4920953;28;97302;-53
2022/10/01 06:33:19;;;;;;;0.00;0.00;;;16.00;99.90;;;16.25;62.49;99945.06;4926278;28;97789;-56
2022/10/01 06:35:50;;;;;;;0.00;0.00;;;16.00;99.90;;;16.33;61.85;99950.69;4923361;28;96934;-55
2022/10/01 06:38:19;;;;;;;0.00;0.00;;;16.00;99.90;;;16.40;60.38;99947.59;4928182;28;97118;-56
2022/10/01 06:40:52;;;;;;;0.00;0.00;;;16.00;99.90;;;16.40;62.32;99950.28;4929653;28;97208;-52
2022/10/01 06:43:18;;;;;;;0.00;0.00;;;16.00;99.90;;;16.45;60.44;99945.47;4926001;28;97643;-55
2022/10/01 06:45:44;;;;;;;0.00;0.00;;;16.00;99.90;;;16.41;63.25;99938.66;4926535;28;97878;-55
2022/10/01 06:48:14;;;;;;;0.10;0.00;;;16.00;99.90;;;16.49;61.46;99946.94;4918316;28;97394;-60
2022/10/01 06:50:41;;;;;;;0.00;0.00;;;16.00;99.90;;;16.51;62.66;99951.22;4919941;28;97486;-54
2022/10/01 06:53:08;;;;;;;0.00;0.00;;;16.10;99.90;;;16.52;62.56;99950.25;4929395;28;97432;-54
2022/10/01 06:55:35;;;;;;;0.00;0.00;;;16.10;99.90;;;16.62;60.38;99955.75;4932214;28;98069;-56
2022/10/01 06:58:05;;;;;;;0.13;0.03;;;16.20;99.90;;;16.76;60.76;99955.66;4928747;28;97133;-56
2022/10/01 07:00:35;;;;;;;0.00;0.00;;;16.30;99.90;;;16.98;58.19;99954.09;4920463;28;97444;-56
2022/10/01 07:03:09;;;;;;;0.07;0.00;;;16.60;99.90;;;17.13;57.43;99952.97;4919813;28;97650;-55
2022/10/01 07:05:37;;;;;;;0.00;0.00;;;16.70;99.90;;;17.09;58.47;99951.50;4914122;28;101543;-55
2022/10/01 07:08:03;;;;;;;0.00;0.00;;;16.70;99.90;;;17.20;58.73;99954.19;4922488;28;98575;-54
2022/10/01 07:10:30;;;;;;;0.00;0.00;;;16.80;99.90;;;17.22;57.00;99950.50;4934953;28;97234;-52
2022/10/01 07:13:13;;;;;;;0.00;0.00;;;16.80;99.90;;;17.22;58.08;99957.63;4931626;28;98391;-53
2022/10/01 07:15:39;;;;;;;0.00;0.00;;;16.90;99.90;;;17.34;56.68;99962.03;4922329;28;101304;-55
2022/10/01 07:18:08;;;;;;;1.37;0.00;;;16.90;99.90;;;17.34;58.59;99964.69;4931024;28;96865;-55
2022/10/01 07:20:38;;;;;;;0.00;0.00;;;16.90;99.90;;;17.40;57.97;99966.91;4938141;28;97583;-55
2022/10/01 07:23:06;;;;;;;0.10;0.07;;;17.00;99.90;;;17.46;57.86;99958.44;4925692;28;98503;-55
2022/10/01 07:25:31;;;;;;;0.00;0.00;;;17.10;99.90;;;17.60;57.73;99961.88;4929465;28;97053;-57
2022/10/01 07:28:03;;;;;;;0.10;0.00;;;17.20;99.90;;;17.59;58.30;99962.84;4929132;28;97174;-54
2022/10/01 07:30:29;;;;;;;0.00;0.00;;;17.30;99.90;;;17.61;57.44;99969.78;4921339;28;97311;-57
2022/10/01 07:32:54;;;;;;;0.00;0.00;;;17.30;99.90;;;17.72;56.59;99961.00;4928045;28;99248;-56
2022/10/01 07:35:21;;;;;;;0.00;0.00;;;17.40;99.90;;;17.78;55.75;99963.19;4921411;28;97390;-55
2022/10/01 07:37:48;;;;;;;0.00;0.00;;;17.40;99.90;;;17.79;56.30;99972.88;4916104;28;97095;-57
2022/10/01 07:40:15;;;;;;;0.00;0.00;;;17.40;99.90;;;17.78;57.12;99972.03;4914468;28;97673;-55
2022/10/01 07:42:42;;;;;;;0.00;0.00;;;17.40;99.90;;;17.86;55.34;99966.13;4923157;28;97451;-57
2022/10/01 07:45:09;;;;;;;0.00;0.00;;;17.50;99.90;;;17.81;56.06;99971.81;4921424;28;97414;-57
2022/10/01 07:47:35;;;;;;;0.43;0.17;;;17.50;99.90;;;17.84;56.94;99981.41;4909906;28;97181;-58
2022/10/01 07:50:01;;;;;;;0.00;0.00;;;17.50;99.90;;;17.90;55.88;99978.25;4928491;28;97735;-55
2022/10/01 07:52:27;;;;;;;0.00;0.00;;;17.50;99.90;;;17.87;58.56;99974.97;4925660;28;98033;-56
2022/10/01 07:54:52;;;;;;;0.00;0.00;;;17.50;99.90;;;17.96;56.24;99975.13;4926652;28;113103;-54
2022/10/01 07:57:18;;;;;;;0.00;0.00;;;17.60;99.90;;;17.91;58.46;99971.94;4924584;28;97672;-57
2022/10/01 07:59:44;;;;;;;0.00;0.00;;;17.60;99.90;;;17.96;58.09;99967.13;4930250;28;97059;-57
2022/10/01 08:02:17;;;;;;;0.00;0.00;;;17.60;99.90;;;17.83;59.76;99969.88;4923060;28;108563;-59
2022/10/01 08:07:30;;;;;;;0.03;0.03;;;17.50;99.90;;;17.89;60.00;99981.03;4923258;28;97601;-55
2022/10/01 08:09:56;;;;;;;0.00;0.00;;;17.60;99.90;;;17.92;59.09;99968.31;4917456;28;97510;-57
2022/10/01 08:12:23;;;;;;;0.00;0.00;;;17.60;99.90;;;17.92;58.21;99989.66;4923410;28;97073;-57
2022/10/01 08:14:49;;;;;;;0.60;0.10;;;17.60;99.90;;;17.88;60.40;99982.88;4919812;28;98096;-55
2022/10/01 08:17:14;;;;;;;0.00;0.00;;;17.50;99.90;;;17.87;57.72;99985.66;4923210;28;107093;-56
2022/10/01 08:19:40;;;;;;;0.00;0.00;;;17.50;99.90;;;17.88;60.10;99996.19;4925742;28;97248;-56
2022/10/01 08:22:06;;;;;;;0.00;0.00;;;17.50;99.90;;;18.03;54.96;99994.19;4924620;28;97275;-57
2022/10/01 08:24:36;;;;;;;0.40;0.20;;;17.70;99.90;;;17.94;60.10;100005.53;4919179;28;96581;-54
2022/10/01 08:27:01;;;;;;;0.10;0.10;;;17.60;99.90;;;17.96;58.55;100007.16;4923495;28;97160;-54
2022/10/01 08:29:27;;;;;;;0.17;0.07;;;17.60;99.90;;;18.08;57.26;100005.34;4926325;28;97154;-55
2022/10/01 08:31:53;;;;;;;0.20;0.00;;;17.80;99.90;;;18.03;59.03;100011.03;4938429;28;115211;-57
2022/10/01 08:34:19;;;;;;;0.00;0.00;;;17.70;99.90;;;18.13;54.75;100009.38;4911418;28;105270;-57
2022/10/01 08:36:49;;;;;;;0.60;0.17;;;17.80;99.90;;;18.16;58.35;100010.09;4926577;28;104233;-58
2022/10/01 08:39:15;;;;;;;0.40;0.00;;;17.90;99.90;;;18.03;61.07;100024.38;4921035;28;97429;-57
2022/10/01 08:42:03;;;;;;;0.10;0.10;;;17.70;99.90;;;17.93;61.84;100023.38;4923560;28;97937;-55
2022/10/01 08:44:40;;;;;;;0.23;0.20;;;17.60;99.90;;;17.96;60.31;100028.50;4919364;28;97184;-56
2022/10/01 08:47:17;;;;;;;0.10;0.00;;;17.60;99.90;;;17.83;61.12;100023.25;4905728;28;97935;-56
2022/10/01 08:49:58;;;;;;;0.10;0.10;;;17.40;99.90;;;17.82;63.37;100031.38;4904616;28;97643;-57
2022/10/01 08:52:33;;;;;;;0.50;0.20;;;17.40;99.90;;;17.82;61.53;100042.03;4898349;28;98824;-56
2022/10/01 08:55:13;;;;;;;0.00;0.00;;;17.40;99.90;;;17.83;61.21;100043.72;4919506;28;97690;-58
2022/10/01 08:57:46;;;;;;;0.47;0.07;;;17.40;99.90;;;17.97;55.71;100050.69;4898264;28;97522;-56
2022/10/01 09:00:17;;;;;;;0.00;0.00;;;17.60;99.90;;;17.96;60.63;100041.00;4899456;28;102134;-56
2022/10/01 09:02:45;;;;;;;0.20;0.20;;;17.70;99.90;;;17.85;64.01;100049.78;4903803;28;96859;-55
2022/10/01 09:05:40;;;;;;;0.10;0.10;;;17.50;99.90;;;17.94;56.79;100043.78;4914323;28;97655;-57
2022/10/01 09:08:42;;;;;;;0.00;0.00;;;17.50;99.90;;;17.99;60.28;100038.94;4903769;28;97112;-57
2022/10/01 09:11:47;;;;;;;0.00;0.00;;;17.60;99.90;;;18.01;62.28;100053.00;4916565;28;101247;-56
2022/10/01 09:14:35;;;;;;;0.00;0.00;;;17.70;99.90;;;18.12;56.10;100050.38;4915766;28;100600;-57
2022/10/01 09:17:36;;;;;;;0.00;0.00;;;17.80;99.90;;;18.25;55.41;100057.44;4921979;28;97519;-57
2022/10/01 09:20:22;;;;;;;0.67;0.27;;;18.00;99.90;;;18.31;56.52;100057.81;4906905;28;97189;-55
2022/10/01 09:23:22;;;;;;;0.10;0.10;;;18.10;99.90;;;18.39;54.52;100067.91;4912583;28;97880;-56
2022/10/01 09:25:49;;;;;;;0.10;0.00;;;18.20;99.90;;;18.49;54.32;100066.22;4918462;28;101424;-56
2022/10/01 09:28:20;;;;;;;0.00;0.00;;;18.30;99.90;;;18.52;54.65;100062.47;4915780;28;97384;-56
2022/10/01 09:31:00;;;;;;;0.50;0.10;;;18.40;99.90;;;18.56;56.20;100062.09;4922836;28;97082;-56
2022/10/01 09:34:16;;;;;;;0.03;0.03;;;18.50;99.90;;;18.62;54.66;100074.97;4926643;28;97305;-58
2022/10/01 09:37:06;;;;;;;0.30;0.30;;;18.60;99.90;;;18.67;54.01;100072.00;4922774;28;100378;-57
2022/10/01 09:40:04;;;;;;;0.30;0.20;;;18.60;99.90;;;18.78;53.91;100079.13;4925579;28;98613;-56
2022/10/01 09:42:30;;;;;;;0.00;0.00;;;18.70;99.90;;;18.84;53.15;100078.66;4924348;28;97733;-59
2022/10/01 09:44:57;;;;;;;0.00;0.00;;;18.90;99.90;;;18.92;52.91;100094.94;4919126;28;97799;-57
2022/10/01 09:47:24;;;;;;;0.00;0.00;;;18.90;99.90;;;18.98;52.85;100091.78;4923157;28;97790;-57
2022/10/01 09:49:50;;;;;;;0.17;0.00;;;19.00;99.90;;;19.04;52.62;100085.94;4926015;28;97000;-58
2022/10/01 09:52:33;;;;;;;0.10;0.00;;;19.10;99.90;;;19.13;52.89;100084.38;4919894;28;97020;-56
2022/10/01 09:55:28;;;;;;;0.17;0.10;;;19.20;99.90;;;19.13;52.89;100085.22;4927606;28;97031;-58
2022/10/01 09:58:08;;;;;;;1.37;0.00;;;19.10;99.90;;;19.19;52.30;100090.06;4939740;28;102130;-58
2022/10/01 10:00:36;;;;;;;0.00;0.00;;;19.20;99.90;;;19.21;52.46;100093.44;4922146;28;97292;-57
2022/10/01 10:03:02;;;;;;;0.63;0.20;;;19.20;99.90;;;19.24;53.18;100093.25;4932216;28;97251;-55
2022/10/01 10:05:39;;;;;;;0.00;0.00;;;19.20;99.90;;;19.25;52.29;100094.09;4929651;28;97164;-56
2022/10/01 10:08:32;;;;;;;0.00;0.00;;;19.20;99.90;;;19.27;51.96;100092.97;4924757;28;97581;-57
2022/10/01 10:11:04;;;;;;;0.00;0.00;;;19.20;99.90;;;19.25;53.03;100105.63;4942720;28;102670;-54
2022/10/01 10:13:37;;;;;;;0.03;0.03;;;19.30;99.90;;;19.26;52.42;100101.97;4922587;28;97313;-55
2022/10/01 10:16:31;;;;;;;0.43;0.20;;;19.30;99.90;;;19.27;52.20;100098.31;4921525;28;98043;-56
2022/10/01 10:19:15;;;;;;;0.10;0.10;;;19.20;99.90;;;19.29;52.09;100098.19;4921489;28;103463;-52
2022/10/01 10:21:52;;;;;;;0.10;0.10;;;19.30;99.90;;;19.28;56.57;100105.38;4915022;28;103272;-57
2022/10/01 10:24:33;;;;;;;0.07;0.07;;;19.30;99.90;;;19.21;52.78;100104.16;4923919;28;97679;-55
2022/10/01 10:27:02;;;;;;;0.00;0.00;;;19.20;99.90;;;19.22;52.78;100107.66;4930503;28;96974;-56
2022/10/01 10:29:31;;;;;;;0.00;0.00;;;19.20;99.90;;;19.26;52.30;100112.66;4922381;28;98117;-54
2022/10/01 10:32:14;;;;;;;0.13;0.10;;;19.30;99.90;;;19.26;52.48;100118.03;4929785;28;98506;-56
2022/10/01 10:34:45;;;;;;;0.00;0.00;;;19.30;99.90;;;19.26;52.60;100119.84;4928097;28;98788;-57
2022/10/01 10:37:18;;;;;;;1.03;0.10;;;19.30;99.90;;;19.27;55.66;100124.22;4918614;28;97034;-53